KAY350 OMDB-WSSS
Flight info
| Callsign | KAY350 |
|---|---|
| Flight time | N/A |
| Altitude | 41000 |
| Route | IVURO M677 LALDO B505 NADSO A777 VAXIM P307 PARAR N571 GUNIP M630 NIREN Y511 TOPOR A464 ARAMA DCT TEBUN TEBUN1A |
| Aircraft | A359/H-SDE2E3GHIJ3J4J5LM1ORWXY/LB1D1 |
Departure
| Time | 2026-04-21 05:10 |
|---|---|
| Airport | Dubai International Airport (OMDB) |
Arrival
| Time | N/A |
|---|---|
| Airport | Singapore Changi Airport (WSSS) |
| Time | Latitude | Longitude | Altitude | Speed | Heading |
|---|---|---|---|---|---|
| 2026-04-21 05:04 | 25.25715 | 55.37115 | 28 ft | 0 kts | 31° |
| 2026-04-21 05:06 | 25.25690 | 55.37098 | 26 ft | 4 kts | 31° |
| 2026-04-21 05:06 | 25.25665 | 55.37081 | 25 ft | 4 kts | 58° |
| 2026-04-21 05:06 | 25.25666 | 55.37050 | 24 ft | 4 kts | 112° |
| 2026-04-21 05:07 | 25.25675 | 55.37026 | 27 ft | 0 kts | 113° |
| 2026-04-21 05:07 | 25.25616 | 55.37125 | 28 ft | 28 kts | 122° |
| 2026-04-21 05:07 | 25.25512 | 55.37309 | 28 ft | 28 kts | 122° |
| 2026-04-21 05:08 | 25.25386 | 55.37400 | 29 ft | 20 kts | 159° |
| 2026-04-21 05:08 | 25.25298 | 55.37509 | 29 ft | 20 kts | 120° |
| 2026-04-21 05:08 | 25.25220 | 55.37646 | 29 ft | 28 kts | 122° |
| 2026-04-21 05:08 | 25.25079 | 55.37895 | 29 ft | 40 kts | 122° |
| 2026-04-21 05:09 | 25.24980 | 55.38029 | 29 ft | 15 kts | 165° |
| 2026-04-21 05:09 | 25.24886 | 55.37993 | 31 ft | 14 kts | 213° |
| 2026-04-21 05:09 | 25.24873 | 55.37908 | 32 ft | 9 kts | 302° |
| 2026-04-21 05:09 | 25.25004 | 55.37671 | 32 ft | 82 kts | 301° |
| 2026-04-21 05:10 | 25.25474 | 55.36825 | 30 ft | 173 kts | 302° |
| 2026-04-21 05:10 | 25.26165 | 55.35574 | 728 ft | 196 kts | 301° |
| 2026-04-21 05:10 | 25.26890 | 55.34264 | 1861 ft | 205 kts | 304° |
| 2026-04-21 05:10 | 25.27665 | 55.32877 | 2926 ft | 220 kts | 304° |
| 2026-04-21 05:11 | 25.28506 | 55.31377 | 4017 ft | 237 kts | 303° |
| 2026-04-21 05:11 | 25.29599 | 55.29967 | 5125 ft | 248 kts | 326° |
| 2026-04-21 05:11 | 25.31257 | 55.29356 | 6161 ft | 264 kts | 355° |
| 2026-04-21 05:11 | 25.33181 | 55.29365 | 6898 ft | 289 kts | 2° |
| 2026-04-21 05:12 | 25.35277 | 55.29489 | 7606 ft | 313 kts | 1° |
| 2026-04-21 05:12 | 25.37527 | 55.29601 | 8302 ft | 333 kts | 0° |
| 2026-04-21 05:12 | 25.39859 | 55.30107 | 9027 ft | 354 kts | 20° |
| 2026-04-21 05:12 | 25.41918 | 55.31649 | 9761 ft | 374 kts | 43° |
| 2026-04-21 05:13 | 25.43569 | 55.33999 | 10460 ft | 389 kts | 53° |
| 2026-04-21 05:13 | 25.45109 | 55.36439 | 11256 ft | 395 kts | 53° |
| 2026-04-21 05:13 | 25.46739 | 55.38895 | 12220 ft | 396 kts | 51° |
| 2026-04-21 05:13 | 25.48417 | 55.41316 | 13219 ft | 397 kts | 51° |
| 2026-04-21 05:14 | 25.50102 | 55.43739 | 14190 ft | 398 kts | 51° |
| 2026-04-21 05:14 | 25.51577 | 55.46331 | 15116 ft | 401 kts | 64° |
| 2026-04-21 05:14 | 25.52305 | 55.49310 | 16089 ft | 402 kts | 85° |
| 2026-04-21 05:14 | 25.52056 | 55.52370 | 17093 ft | 400 kts | 107° |
| 2026-04-21 05:15 | 25.50889 | 55.55129 | 18106 ft | 395 kts | 126° |
| 2026-04-21 05:15 | 25.49366 | 55.57689 | 18776 ft | 401 kts | 125° |
| 2026-04-21 05:15 | 25.47828 | 55.60305 | 19346 ft | 409 kts | 125° |
| 2026-04-21 05:15 | 25.46275 | 55.62983 | 19919 ft | 417 kts | 125° |
| 2026-04-21 05:16 | 25.44708 | 55.65707 | 20514 ft | 423 kts | 124° |
| 2026-04-21 05:16 | 25.43179 | 55.68511 | 21125 ft | 429 kts | 119° |
| 2026-04-21 05:16 | 25.42128 | 55.71625 | 21754 ft | 436 kts | 106° |
| 2026-04-21 05:16 | 25.41401 | 55.74898 | 22380 ft | 440 kts | 104° |
| 2026-04-21 05:17 | 25.40724 | 55.78170 | 23019 ft | 443 kts | 104° |
| 2026-04-21 05:17 | 25.40031 | 55.81499 | 23650 ft | 445 kts | 104° |
| 2026-04-21 05:17 | 25.39324 | 55.84845 | 24205 ft | 447 kts | 104° |
| 2026-04-21 05:17 | 25.38613 | 55.88194 | 24757 ft | 449 kts | 104° |
| 2026-04-21 05:18 | 25.37895 | 55.91560 | 25327 ft | 450 kts | 104° |
| 2026-04-21 05:18 | 25.37176 | 55.94928 | 25928 ft | 451 kts | 104° |
| 2026-04-21 05:18 | 25.36452 | 55.98312 | 26522 ft | 452 kts | 104° |
| 2026-04-21 05:18 | 25.35723 | 56.01712 | 26912 ft | 458 kts | 104° |
| 2026-04-21 05:19 | 25.34983 | 56.05158 | 27291 ft | 464 kts | 104° |
| 2026-04-21 05:19 | 25.34231 | 56.08652 | 27659 ft | 470 kts | 104° |
| 2026-04-21 05:19 | 25.33471 | 56.12186 | 28033 ft | 476 kts | 104° |
| 2026-04-21 05:19 | 25.32803 | 56.15791 | 28419 ft | 481 kts | 99° |
| 2026-04-21 05:20 | 25.32375 | 56.19483 | 28812 ft | 486 kts | 97° |
| 2026-04-21 05:20 | 25.32036 | 56.23219 | 29205 ft | 491 kts | 96° |
| 2026-04-21 05:20 | 25.31741 | 56.26949 | 29604 ft | 495 kts | 96° |
| 2026-04-21 05:20 | 25.31449 | 56.30798 | 30009 ft | 498 kts | 96° |
| 2026-04-21 05:21 | 25.31156 | 56.34625 | 30354 ft | 501 kts | 96° |
| 2026-04-21 05:21 | 25.30855 | 56.38423 | 30704 ft | 505 kts | 96° |
| 2026-04-21 05:21 | 25.30568 | 56.42295 | 31060 ft | 507 kts | 94° |
| 2026-04-21 05:21 | 25.30408 | 56.46197 | 31420 ft | 510 kts | 92° |
| 2026-04-21 05:22 | 25.30321 | 56.50119 | 31799 ft | 511 kts | 91° |
| 2026-04-21 05:22 | 25.30254 | 56.54060 | 32146 ft | 513 kts | 91° |
| 2026-04-21 05:22 | 25.29989 | 56.57985 | 32524 ft | 513 kts | 99° |
| 2026-04-21 05:22 | 25.29243 | 56.61834 | 32906 ft | 512 kts | 108° |
| 2026-04-21 05:23 | 25.28072 | 56.65553 | 33295 ft | 512 kts | 112° |
| 2026-04-21 05:23 | 25.26770 | 56.69210 | 33679 ft | 512 kts | 113° |
| 2026-04-21 05:23 | 25.25405 | 56.72837 | 34051 ft | 511 kts | 114° |
| 2026-04-21 05:23 | 25.24011 | 56.76455 | 34399 ft | 511 kts | 114° |
| 2026-04-21 05:24 | 25.22614 | 56.80060 | 34747 ft | 511 kts | 114° |
| 2026-04-21 05:24 | 25.21221 | 56.83666 | 35104 ft | 510 kts | 113° |
| 2026-04-21 05:24 | 25.19836 | 56.87269 | 35468 ft | 509 kts | 113° |
| 2026-04-21 05:24 | 25.18460 | 56.90865 | 35835 ft | 508 kts | 112° |
| 2026-04-21 05:25 | 25.17091 | 56.94455 | 36213 ft | 506 kts | 112° |
| 2026-04-21 05:25 | 25.15730 | 56.98025 | 36588 ft | 504 kts | 112° |
| 2026-04-21 05:25 | 25.14373 | 57.01582 | 36967 ft | 501 kts | 111° |
| 2026-04-21 05:25 | 25.13027 | 57.05112 | 37356 ft | 498 kts | 111° |
| 2026-04-21 05:26 | 25.11688 | 57.08618 | 37755 ft | 493 kts | 111° |
| 2026-04-21 05:26 | 25.10361 | 57.12088 | 38161 ft | 489 kts | 110° |
| 2026-04-21 05:26 | 25.09045 | 57.15526 | 38572 ft | 483 kts | 110° |
| 2026-04-21 05:26 | 25.07747 | 57.18913 | 38908 ft | 476 kts | 110° |
| 2026-04-21 05:27 | 25.06466 | 57.22252 | 39255 ft | 469 kts | 110° |
| 2026-04-21 05:27 | 25.05202 | 57.25545 | 39563 ft | 463 kts | 110° |
| 2026-04-21 05:27 | 25.03968 | 57.28760 | 39765 ft | 460 kts | 110° |
| 2026-04-21 05:27 | 25.02725 | 57.31998 | 39894 ft | 458 kts | 110° |
| 2026-04-21 05:28 | 25.01485 | 57.35226 | 39998 ft | 457 kts | 110° |
| 2026-04-21 05:28 | 25.00247 | 57.38449 | 40072 ft | 456 kts | 110° |
| 2026-04-21 05:28 | 24.97775 | 57.44868 | 40217 ft | 454 kts | 110° |
| 2026-04-21 05:29 | 24.95302 | 57.51280 | 40335 ft | 455 kts | 110° |
| 2026-04-21 05:29 | 24.92827 | 57.57687 | 40404 ft | 455 kts | 110° |
| 2026-04-21 05:30 | 24.90345 | 57.64100 | 40483 ft | 455 kts | 110° |
| 2026-04-21 05:30 | 24.89095 | 57.67330 | 40342 ft | 462 kts | 110° |
| 2026-04-21 05:30 | 24.87837 | 57.70581 | 40011 ft | 474 kts | 110° |
| 2026-04-21 05:31 | 24.86536 | 57.73940 | 39871 ft | 480 kts | 110° |
| 2026-04-21 05:31 | 24.85220 | 57.77330 | 39862 ft | 483 kts | 111° |
| 2026-04-21 05:31 | 24.82548 | 57.84179 | 39847 ft | 490 kts | 111° |
| 2026-04-21 05:32 | 24.79614 | 57.91015 | 39860 ft | 497 kts | 114° |
| 2026-04-21 05:32 | 24.76535 | 57.97896 | 39858 ft | 505 kts | 114° |
| 2026-04-21 05:33 | 24.73432 | 58.04892 | 39860 ft | 513 kts | 114° |
| 2026-04-21 05:33 | 24.70301 | 58.12022 | 39860 ft | 521 kts | 114° |
| 2026-04-21 05:34 | 24.67133 | 58.19252 | 39860 ft | 529 kts | 114° |
| 2026-04-21 05:34 | 24.63908 | 58.26599 | 39866 ft | 537 kts | 114° |
| 2026-04-21 05:35 | 24.60633 | 58.34045 | 39862 ft | 545 kts | 114° |
| 2026-04-21 05:35 | 24.57311 | 58.41582 | 39859 ft | 552 kts | 114° |
| 2026-04-21 05:36 | 24.53943 | 58.49211 | 39867 ft | 557 kts | 114° |
| 2026-04-21 05:36 | 24.50573 | 58.56830 | 39863 ft | 559 kts | 114° |
| 2026-04-21 05:37 | 24.47171 | 58.64509 | 39856 ft | 559 kts | 114° |
| 2026-04-21 05:37 | 24.43763 | 58.72190 | 39865 ft | 560 kts | 114° |
| 2026-04-21 05:38 | 24.40352 | 58.79877 | 39862 ft | 560 kts | 114° |
| 2026-04-21 05:38 | 24.36938 | 58.87556 | 39866 ft | 560 kts | 114° |
| 2026-04-21 05:39 | 24.35229 | 58.91390 | 39977 ft | 558 kts | 114° |
| 2026-04-21 05:39 | 24.33530 | 58.95200 | 40209 ft | 554 kts | 114° |
| 2026-04-21 05:39 | 24.31842 | 58.98980 | 40451 ft | 550 kts | 114° |
| 2026-04-21 05:39 | 24.30165 | 59.02737 | 40695 ft | 547 kts | 114° |
| 2026-04-21 05:40 | 24.28497 | 59.06470 | 40843 ft | 546 kts | 114° |
| 2026-04-21 05:40 | 24.26826 | 59.10208 | 40856 ft | 547 kts | 114° |
| 2026-04-21 05:40 | 24.23475 | 59.17701 | 40867 ft | 548 kts | 114° |
| 2026-04-21 05:41 | 24.20108 | 59.25213 | 40868 ft | 550 kts | 114° |
| 2026-04-21 05:41 | 24.16728 | 59.32740 | 40870 ft | 551 kts | 114° |
| 2026-04-21 05:42 | 24.13348 | 59.40252 | 40865 ft | 549 kts | 114° |
| 2026-04-21 05:42 | 24.09998 | 59.47689 | 40864 ft | 548 kts | 114° |
| 2026-04-21 05:43 | 24.06627 | 59.55173 | 40864 ft | 548 kts | 114° |
| 2026-04-21 05:43 | 24.03247 | 59.62650 | 40871 ft | 548 kts | 114° |
| 2026-04-21 05:44 | 23.99871 | 59.70100 | 40867 ft | 546 kts | 114° |
| 2026-04-21 05:44 | 23.96500 | 59.77533 | 40867 ft | 545 kts | 114° |
| 2026-04-21 05:45 | 23.93131 | 59.84954 | 40861 ft | 545 kts | 114° |
| 2026-04-21 05:45 | 23.89755 | 59.92377 | 40869 ft | 545 kts | 114° |
| 2026-04-21 05:46 | 23.86383 | 59.99780 | 40865 ft | 543 kts | 114° |
| 2026-04-21 05:46 | 23.83013 | 60.07168 | 40873 ft | 543 kts | 114° |
| 2026-04-21 05:47 | 23.79640 | 60.14549 | 40866 ft | 543 kts | 114° |
| 2026-04-21 05:47 | 23.76289 | 60.21873 | 40876 ft | 542 kts | 114° |
| 2026-04-21 05:48 | 23.72918 | 60.29227 | 40871 ft | 541 kts | 114° |
| 2026-04-21 05:48 | 23.69544 | 60.36578 | 40873 ft | 542 kts | 114° |
| 2026-04-21 05:49 | 23.66167 | 60.43923 | 40879 ft | 542 kts | 114° |
| 2026-04-21 05:49 | 23.62791 | 60.51254 | 40876 ft | 540 kts | 114° |
| 2026-04-21 05:50 | 23.59415 | 60.58573 | 40881 ft | 539 kts | 114° |
| 2026-04-21 05:50 | 23.56043 | 60.65874 | 40880 ft | 539 kts | 114° |
| 2026-04-21 05:51 | 23.52668 | 60.73171 | 40882 ft | 539 kts | 114° |
| 2026-04-21 05:51 | 23.49290 | 60.80462 | 40885 ft | 538 kts | 115° |
| 2026-04-21 05:52 | 23.45915 | 60.87736 | 40888 ft | 537 kts | 115° |
| 2026-04-21 05:52 | 23.42544 | 60.94990 | 40890 ft | 537 kts | 115° |
| 2026-04-21 05:53 | 23.39192 | 61.02193 | 40888 ft | 537 kts | 115° |
| 2026-04-21 05:53 | 23.35818 | 61.09433 | 40883 ft | 536 kts | 115° |
| 2026-04-21 05:54 | 23.32446 | 61.16657 | 40892 ft | 535 kts | 115° |
| 2026-04-21 05:54 | 23.29124 | 61.23902 | 40895 ft | 535 kts | 114° |
| 2026-04-21 05:55 | 23.25907 | 61.31195 | 40892 ft | 535 kts | 113° |
| 2026-04-21 05:55 | 23.23237 | 61.37258 | 40900 ft | 535 kts | 113° |
| 2026-04-21 05:56 | 23.20007 | 61.44535 | 40898 ft | 534 kts | 114° |
| 2026-04-21 05:56 | 23.16766 | 61.51799 | 40898 ft | 534 kts | 114° |
| 2026-04-21 05:57 | 23.13516 | 61.59064 | 40898 ft | 535 kts | 114° |
| 2026-04-21 05:57 | 23.10262 | 61.66330 | 40905 ft | 535 kts | 114° |
| 2026-04-21 05:58 | 23.07004 | 61.73594 | 40904 ft | 535 kts | 114° |
| 2026-04-21 05:58 | 23.03740 | 61.80857 | 40908 ft | 535 kts | 114° |
| 2026-04-21 05:59 | 23.00472 | 61.88125 | 40908 ft | 535 kts | 114° |
| 2026-04-21 06:00 | 22.95592 | 61.98961 | 40902 ft | 534 kts | 114° |
| 2026-04-21 06:00 | 22.92319 | 62.06209 | 40913 ft | 535 kts | 114° |
| 2026-04-21 06:01 | 22.89040 | 62.13461 | 40909 ft | 535 kts | 114° |
| 2026-04-21 06:01 | 22.85763 | 62.20701 | 40909 ft | 535 kts | 114° |
| 2026-04-21 06:02 | 22.82482 | 62.27940 | 40911 ft | 534 kts | 115° |
| 2026-04-21 06:02 | 22.79204 | 62.35157 | 40912 ft | 533 kts | 115° |
| 2026-04-21 06:03 | 22.75925 | 62.42367 | 40909 ft | 533 kts | 115° |
| 2026-04-21 06:03 | 22.72664 | 62.49525 | 40908 ft | 533 kts | 115° |
| 2026-04-21 06:04 | 22.69379 | 62.56728 | 40911 ft | 533 kts | 115° |
| 2026-04-21 06:04 | 22.66095 | 62.63918 | 40911 ft | 532 kts | 115° |
| 2026-04-21 06:05 | 22.62809 | 62.71102 | 40908 ft | 532 kts | 115° |
| 2026-04-21 06:05 | 22.59520 | 62.78282 | 40911 ft | 532 kts | 115° |
| 2026-04-21 06:06 | 22.56226 | 62.85462 | 40912 ft | 532 kts | 116° |
| 2026-04-21 06:06 | 22.52934 | 62.92627 | 40908 ft | 532 kts | 116° |
| 2026-04-21 06:07 | 22.49636 | 62.99796 | 40911 ft | 532 kts | 116° |
| 2026-04-21 06:07 | 22.46333 | 63.06965 | 40908 ft | 532 kts | 116° |
| 2026-04-21 06:08 | 22.43034 | 63.14130 | 40917 ft | 532 kts | 116° |
| 2026-04-21 06:08 | 22.39830 | 63.21284 | 40911 ft | 532 kts | 115° |
| 2026-04-21 06:09 | 22.36632 | 63.28486 | 40908 ft | 532 kts | 115° |
| 2026-04-21 06:09 | 22.33422 | 63.35677 | 40905 ft | 531 kts | 115° |
| 2026-04-21 06:10 | 22.30201 | 63.42861 | 40908 ft | 531 kts | 115° |
| 2026-04-21 06:10 | 22.26979 | 63.50030 | 40910 ft | 529 kts | 115° |
| 2026-04-21 06:11 | 22.23764 | 63.57171 | 40912 ft | 529 kts | 115° |
| 2026-04-21 06:11 | 22.20547 | 63.64308 | 40911 ft | 528 kts | 115° |
| 2026-04-21 06:12 | 22.17352 | 63.71388 | 40909 ft | 528 kts | 115° |
| 2026-04-21 06:12 | 22.14135 | 63.78507 | 40908 ft | 527 kts | 115° |
| 2026-04-21 06:13 | 22.10921 | 63.85607 | 40911 ft | 526 kts | 115° |
| 2026-04-21 06:13 | 22.07712 | 63.92688 | 40909 ft | 526 kts | 115° |
| 2026-04-21 06:14 | 22.04495 | 63.99776 | 40911 ft | 526 kts | 115° |
| 2026-04-21 06:14 | 22.01277 | 64.06856 | 40914 ft | 526 kts | 115° |
| 2026-04-21 06:15 | 21.98059 | 64.13925 | 40909 ft | 525 kts | 115° |
| 2026-04-21 06:15 | 21.94863 | 64.20938 | 40908 ft | 525 kts | 115° |
| 2026-04-21 06:16 | 21.91645 | 64.27989 | 40899 ft | 525 kts | 115° |
| 2026-04-21 06:16 | 21.88422 | 64.35040 | 40908 ft | 525 kts | 115° |
| 2026-04-21 06:17 | 21.85200 | 64.42081 | 40911 ft | 524 kts | 115° |
| 2026-04-21 06:17 | 21.81979 | 64.49108 | 40913 ft | 524 kts | 115° |
| 2026-04-21 06:18 | 21.78754 | 64.56135 | 40913 ft | 523 kts | 115° |
| 2026-04-21 06:18 | 21.75526 | 64.63158 | 40914 ft | 523 kts | 115° |
| 2026-04-21 06:19 | 21.72295 | 64.70180 | 40914 ft | 523 kts | 115° |
| 2026-04-21 06:19 | 21.69063 | 64.77193 | 40905 ft | 523 kts | 115° |
| 2026-04-21 06:20 | 21.65828 | 64.84204 | 40913 ft | 523 kts | 115° |
| 2026-04-21 06:20 | 21.62590 | 64.91212 | 40914 ft | 523 kts | 115° |
| 2026-04-21 06:21 | 21.59351 | 64.98212 | 40920 ft | 523 kts | 115° |
| 2026-04-21 06:21 | 21.56110 | 65.05206 | 40912 ft | 523 kts | 115° |
| 2026-04-21 06:22 | 21.52869 | 65.12193 | 40912 ft | 522 kts | 115° |
| 2026-04-21 06:22 | 21.49625 | 65.19175 | 40916 ft | 522 kts | 115° |
| 2026-04-21 06:23 | 21.46378 | 65.26154 | 40913 ft | 522 kts | 115° |
| 2026-04-21 06:23 | 21.43131 | 65.33126 | 40912 ft | 522 kts | 115° |
| 2026-04-21 06:24 | 21.39909 | 65.40033 | 40912 ft | 520 kts | 115° |
| 2026-04-21 06:24 | 21.36666 | 65.46977 | 40917 ft | 520 kts | 115° |
| 2026-04-21 06:25 | 21.33424 | 65.53909 | 40914 ft | 520 kts | 116° |
| 2026-04-21 06:25 | 21.30178 | 65.60841 | 40913 ft | 520 kts | 116° |
| 2026-04-21 06:26 | 21.26931 | 65.67766 | 40914 ft | 519 kts | 116° |
| 2026-04-21 06:26 | 21.23690 | 65.74668 | 40912 ft | 518 kts | 116° |
| 2026-04-21 06:27 | 21.20446 | 65.81567 | 40914 ft | 518 kts | 116° |
| 2026-04-21 06:27 | 21.17202 | 65.88459 | 40913 ft | 518 kts | 116° |
| 2026-04-21 06:28 | 21.13956 | 65.95346 | 40916 ft | 517 kts | 116° |
| 2026-04-21 06:28 | 21.10717 | 66.02223 | 40914 ft | 516 kts | 115° |
| 2026-04-21 06:29 | 21.07568 | 66.09135 | 40913 ft | 516 kts | 115° |
| 2026-04-21 06:29 | 21.04451 | 66.16056 | 40914 ft | 516 kts | 115° |
| 2026-04-21 06:30 | 21.01321 | 66.22971 | 40912 ft | 516 kts | 115° |
| 2026-04-21 06:30 | 20.98178 | 66.29874 | 40913 ft | 515 kts | 115° |
| 2026-04-21 06:31 | 20.95036 | 66.36757 | 40914 ft | 515 kts | 115° |
| 2026-04-21 06:31 | 20.91913 | 66.43592 | 40913 ft | 514 kts | 115° |
| 2026-04-21 06:32 | 20.88769 | 66.50463 | 40915 ft | 514 kts | 115° |
| 2026-04-21 06:32 | 20.85622 | 66.57334 | 40916 ft | 514 kts | 115° |
| 2026-04-21 06:33 | 20.82475 | 66.64197 | 40914 ft | 514 kts | 115° |
| 2026-04-21 06:33 | 20.79327 | 66.71050 | 40914 ft | 514 kts | 116° |
| 2026-04-21 06:34 | 20.76179 | 66.77896 | 40910 ft | 513 kts | 116° |
| 2026-04-21 06:34 | 20.73030 | 66.84736 | 40912 ft | 513 kts | 116° |
| 2026-04-21 06:35 | 20.69880 | 66.91570 | 40911 ft | 512 kts | 116° |
| 2026-04-21 06:35 | 20.66730 | 66.98395 | 40914 ft | 512 kts | 116° |
| 2026-04-21 06:36 | 20.63581 | 67.05208 | 40912 ft | 512 kts | 116° |
| 2026-04-21 06:36 | 20.60430 | 67.12017 | 40911 ft | 512 kts | 116° |
| 2026-04-21 06:37 | 20.57277 | 67.18821 | 40910 ft | 512 kts | 116° |
| 2026-04-21 06:37 | 20.54121 | 67.25626 | 40911 ft | 511 kts | 116° |
| 2026-04-21 06:38 | 20.50963 | 67.32423 | 40909 ft | 511 kts | 116° |
| 2026-04-21 06:38 | 20.47823 | 67.39174 | 40908 ft | 511 kts | 116° |
| 2026-04-21 06:39 | 20.44664 | 67.45960 | 40908 ft | 511 kts | 116° |
| 2026-04-21 06:39 | 20.41500 | 67.52746 | 40908 ft | 511 kts | 116° |
| 2026-04-21 06:40 | 20.38332 | 67.59533 | 40905 ft | 511 kts | 116° |
| 2026-04-21 06:40 | 20.35165 | 67.66308 | 40906 ft | 511 kts | 116° |
| 2026-04-21 06:41 | 20.31992 | 67.73088 | 40909 ft | 511 kts | 117° |
| 2026-04-21 06:41 | 20.28821 | 67.79856 | 40905 ft | 510 kts | 117° |
| 2026-04-21 06:42 | 20.25650 | 67.86615 | 40904 ft | 510 kts | 117° |
| 2026-04-21 06:42 | 20.22481 | 67.93362 | 40903 ft | 510 kts | 117° |
| 2026-04-21 06:43 | 20.19306 | 68.00114 | 40904 ft | 510 kts | 117° |
| 2026-04-21 06:43 | 20.16148 | 68.06821 | 40904 ft | 510 kts | 117° |
| 2026-04-21 06:44 | 20.12966 | 68.13570 | 40905 ft | 510 kts | 117° |
| 2026-04-21 06:44 | 20.09784 | 68.20312 | 40907 ft | 510 kts | 117° |
| 2026-04-21 06:45 | 20.06600 | 68.27050 | 40901 ft | 510 kts | 117° |
| 2026-04-21 06:45 | 20.03411 | 68.33791 | 40903 ft | 511 kts | 117° |
| 2026-04-21 06:46 | 20.00215 | 68.40538 | 40902 ft | 511 kts | 117° |
| 2026-04-21 06:46 | 19.97017 | 68.47280 | 40903 ft | 511 kts | 117° |
| 2026-04-21 06:47 | 19.94358 | 68.52882 | 40908 ft | 511 kts | 117° |
| 2026-04-21 06:47 | 19.91154 | 68.59621 | 40906 ft | 511 kts | 117° |
| 2026-04-21 06:48 | 19.87945 | 68.66366 | 40905 ft | 511 kts | 117° |
| 2026-04-21 06:48 | 19.84735 | 68.73102 | 40906 ft | 511 kts | 117° |
| 2026-04-21 06:49 | 19.81520 | 68.79842 | 40901 ft | 512 kts | 118° |
| 2026-04-21 06:49 | 19.78299 | 68.86587 | 40910 ft | 513 kts | 118° |
| 2026-04-21 06:50 | 19.75066 | 68.93348 | 40909 ft | 514 kts | 118° |
| 2026-04-21 06:50 | 19.71829 | 69.00110 | 40908 ft | 514 kts | 118° |
| 2026-04-21 06:51 | 19.68588 | 69.06872 | 40907 ft | 514 kts | 118° |
| 2026-04-21 06:51 | 19.65345 | 69.13630 | 40908 ft | 514 kts | 118° |
| 2026-04-21 06:52 | 19.62099 | 69.20387 | 40909 ft | 514 kts | 118° |
| 2026-04-21 06:52 | 19.58852 | 69.27138 | 40909 ft | 514 kts | 118° |
| 2026-04-21 06:53 | 19.55599 | 69.33894 | 40902 ft | 514 kts | 118° |
| 2026-04-21 06:53 | 19.52399 | 69.40680 | 40904 ft | 515 kts | 117° |
| 2026-04-21 06:54 | 19.49298 | 69.47516 | 40910 ft | 515 kts | 117° |
| 2026-04-21 06:54 | 19.46192 | 69.54360 | 40909 ft | 515 kts | 117° |
| 2026-04-21 06:55 | 19.43068 | 69.61188 | 40906 ft | 515 kts | 118° |
| 2026-04-21 06:55 | 19.39953 | 69.67965 | 40909 ft | 515 kts | 118° |
| 2026-04-21 06:56 | 19.36813 | 69.74785 | 40905 ft | 515 kts | 118° |
| 2026-04-21 06:56 | 19.33671 | 69.81605 | 40902 ft | 515 kts | 118° |
| 2026-04-21 06:57 | 19.30530 | 69.88415 | 40896 ft | 515 kts | 118° |
| 2026-04-21 06:57 | 19.27387 | 69.95220 | 40903 ft | 514 kts | 118° |
| 2026-04-21 06:58 | 19.24243 | 70.02020 | 40900 ft | 514 kts | 118° |
| 2026-04-21 06:58 | 19.21100 | 70.08809 | 40898 ft | 514 kts | 118° |
| 2026-04-21 06:59 | 19.17975 | 70.15553 | 40897 ft | 514 kts | 118° |
| 2026-04-21 06:59 | 19.14826 | 70.22341 | 40896 ft | 514 kts | 119° |
| 2026-04-21 07:00 | 19.11675 | 70.29123 | 40896 ft | 514 kts | 119° |
| 2026-04-21 07:00 | 19.08524 | 70.35898 | 40904 ft | 514 kts | 119° |
| 2026-04-21 07:01 | 19.05368 | 70.42678 | 40895 ft | 513 kts | 119° |
| 2026-04-21 07:01 | 19.00639 | 70.52819 | 40900 ft | 513 kts | 119° |
| 2026-04-21 07:02 | 18.97481 | 70.59582 | 40906 ft | 513 kts | 120° |
| 2026-04-21 07:02 | 18.94324 | 70.66334 | 40896 ft | 513 kts | 120° |
| 2026-04-21 07:03 | 18.91163 | 70.73088 | 40891 ft | 513 kts | 120° |
| 2026-04-21 07:03 | 18.88002 | 70.79834 | 40891 ft | 513 kts | 120° |
| 2026-04-21 07:04 | 18.84836 | 70.86582 | 40893 ft | 513 kts | 120° |
| 2026-04-21 07:04 | 18.81690 | 70.93282 | 40888 ft | 513 kts | 120° |
| 2026-04-21 07:05 | 18.78517 | 71.00031 | 40901 ft | 514 kts | 121° |
| 2026-04-21 07:05 | 18.75337 | 71.06789 | 40898 ft | 514 kts | 121° |
| 2026-04-21 07:06 | 18.72151 | 71.13547 | 40893 ft | 514 kts | 121° |
| 2026-04-21 07:06 | 18.68968 | 71.20293 | 40878 ft | 514 kts | 121° |
| 2026-04-21 07:07 | 18.65778 | 71.27047 | 40885 ft | 514 kts | 121° |
| 2026-04-21 07:07 | 18.62585 | 71.33800 | 40886 ft | 514 kts | 121° |
| 2026-04-21 07:08 | 18.59391 | 71.40547 | 40900 ft | 514 kts | 121° |
| 2026-04-21 07:08 | 18.56197 | 71.47286 | 40904 ft | 514 kts | 121° |
| 2026-04-21 07:09 | 18.53021 | 71.53980 | 40893 ft | 514 kts | 121° |
| 2026-04-21 07:09 | 18.49827 | 71.60707 | 40891 ft | 514 kts | 122° |
| 2026-04-21 07:10 | 18.46626 | 71.67439 | 40895 ft | 514 kts | 122° |